sensor_id;sensor_type;location;lat;lon;timestamp;temperature;humidity
3190;DHT22;1606;51.946;10.558;2023-03-23T00:01:30;15.70;96.70
3190;DHT22;1606;51.946;10.558;2023-03-23T00:04:03;15.80;96.90
3190;DHT22;1606;51.946;10.558;2023-03-23T00:06:32;16.00;96.60
3190;DHT22;1606;51.946;10.558;2023-03-23T00:09:01;16.00;96.60
3190;DHT22;1606;51.946;10.558;2023-03-23T00:11:31;15.90;96.50
3190;DHT22;1606;51.946;10.558;2023-03-23T00:13:59;15.90;96.80
3190;DHT22;1606;51.946;10.558;2023-03-23T00:16:29;16.00;96.80
3190;DHT22;1606;51.946;10.558;2023-03-23T00:18:58;16.10;97.00
3190;DHT22;1606;51.946;10.558;2023-03-23T00:21:26;16.10;96.80
3190;DHT22;1606;51.946;10.558;2023-03-23T00:24:03;16.00;96.50
3190;DHT22;1606;51.946;10.558;2023-03-23T00:26:31;15.80;96.60
3190;DHT22;1606;51.946;10.558;2023-03-23T00:29:00;16.00;96.70
3190;DHT22;1606;51.946;10.558;2023-03-23T00:31:28;16.00;97.00
3190;DHT22;1606;51.946;10.558;2023-03-23T00:33:58;16.10;96.90
3190;DHT22;1606;51.946;10.558;2023-03-23T00:36:27;16.10;96.50
3190;DHT22;1606;51.946;10.558;2023-03-23T00:38:54;16.10;96.60
3190;DHT22;1606;51.946;10.558;2023-03-23T00:41:25;16.00;96.70
3190;DHT22;1606;51.946;10.558;2023-03-23T00:43:54;16.10;96.40
3190;DHT22;1606;51.946;10.558;2023-03-23T00:46:21;16.10;96.70
3190;DHT22;1606;51.946;10.558;2023-03-23T00:48:48;16.10;96.50
3190;DHT22;1606;51.946;10.558;2023-03-23T00:51:16;16.00;96.90
3190;DHT22;1606;51.946;10.558;2023-03-23T00:53:43;16.40;96.70
3190;DHT22;1606;51.946;10.558;2023-03-23T00:56:11;16.30;96.40
3190;DHT22;1606;51.946;10.558;2023-03-23T00:58:39;16.00;96.60
3190;DHT22;1606;51.946;10.558;2023-03-23T01:01:06;16.00;97.10
3190;DHT22;1606;51.946;10.558;2023-03-23T01:03:33;16.20;96.90
3190;DHT22;1606;51.946;10.558;2023-03-23T01:06:06;16.00;97.80
3190;DHT22;1606;51.946;10.558;2023-03-23T01:08:34;15.90;99.20
3190;DHT22;1606;51.946;10.558;2023-03-23T01:11:03;15.80;99.90
3190;DHT22;1606;51.946;10.558;2023-03-23T01:13:30;15.60;99.90
3190;DHT22;1606;51.946;10.558;2023-03-23T01:15:58;15.40;99.90
3190;DHT22;1606;51.946;10.558;2023-03-23T01:18:25;15.40;99.90
3190;DHT22;1606;51.946;10.558;2023-03-23T01:20:52;15.30;99.90
3190;DHT22;1606;51.946;10.558;2023-03-23T01:23:19;15.40;99.90
3190;DHT22;1606;51.946;10.558;2023-03-23T01:25:45;15.40;99.90
3190;DHT22;1606;51.946;10.558;2023-03-23T01:28:12;15.40;99.90
3190;DHT22;1606;51.946;10.558;2023-03-23T01:30:39;15.40;99.90
3190;DHT22;1606;51.946;10.558;2023-03-23T01:33:07;15.30;99.90
3190;DHT22;1606;51.946;10.558;2023-03-23T01:35:37;15.10;99.90
3190;DHT22;1606;51.946;10.558;2023-03-23T01:38:04;15.00;99.90
3190;DHT22;1606;51.946;10.558;2023-03-23T01:40:30;15.00;99.90
3190;DHT22;1606;51.946;10.558;2023-03-23T01:42:57;14.70;99.90
3190;DHT22;1606;51.946;10.558;2023-03-23T01:45:28;14.60;99.90
3190;DHT22;1606;51.946;10.558;2023-03-23T01:47:59;14.30;99.90
3190;DHT22;1606;51.946;10.558;2023-03-23T01:50:30;14.20;99.90
3190;DHT22;1606;51.946;10.558;2023-03-23T01:53:01;14.20;99.90
3190;DHT22;1606;51.946;10.558;2023-03-23T01:55:28;14.20;99.90
3190;DHT22;1606;51.946;10.558;2023-03-23T01:57:56;14.20;99.90
3190;DHT22;1606;51.946;10.558;2023-03-23T02:00:24;14.20;99.90
3190;DHT22;1606;51.946;10.558;2023-03-23T02:02:53;14.10;99.90
3190;DHT22;1606;51.946;10.558;2023-03-23T02:05:25;14.20;99.90
3190;DHT22;1606;51.946;10.558;2023-03-23T02:07:57;14.20;99.90
3190;DHT22;1606;51.946;10.558;2023-03-23T02:10:29;14.20;99.90
3190;DHT22;1606;51.946;10.558;2023-03-23T02:12:56;14.20;99.90
3190;DHT22;1606;51.946;10.558;2023-03-23T02:15:25;14.40;99.90
3190;DHT22;1606;51.946;10.558;2023-03-23T02:17:59;14.40;99.90
3190;DHT22;1606;51.946;10.558;2023-03-23T02:20:54;14.50;99.90
3190;DHT22;1606;51.946;10.558;2023-03-23T02:26:33;14.60;99.90
3190;DHT22;1606;51.946;10.558;2023-03-23T02:29:18;14.70;99.90
3190;DHT22;1606;51.946;10.558;2023-03-23T02:32:07;14.80;99.90
3190;DHT22;1606;51.946;10.558;2023-03-23T02:34:38;14.80;99.90
3190;DHT22;1606;51.946;10.558;2023-03-23T02:37:10;14.80;99.90
3190;DHT22;1606;51.946;10.558;2023-03-23T02:39:43;14.90;99.90
3190;DHT22;1606;51.946;10.558;2023-03-23T02:42:14;15.00;99.90
3190;DHT22;1606;51.946;10.558;2023-03-23T02:44:43;14.80;99.90
3190;DHT22;1606;51.946;10.558;2023-03-23T02:47:15;14.80;99.90
3190;DHT22;1606;51.946;10.558;2023-03-23T02:49:47;15.00;99.90
3190;DHT22;1606;51.946;10.558;2023-03-23T02:52:17;14.80;99.90
3190;DHT22;1606;51.946;10.558;2023-03-23T02:54:47;14.90;99.90
3190;DHT22;1606;51.946;10.558;2023-03-23T02:57:15;14.80;99.90
3190;DHT22;1606;51.946;10.558;2023-03-23T02:59:41;14.80;99.90
3190;DHT22;1606;51.946;10.558;2023-03-23T03:02:12;14.50;99.90
3190;DHT22;1606;51.946;10.558;2023-03-23T03:04:40;14.50;99.90
3190;DHT22;1606;51.946;10.558;2023-03-23T03:10:05;14.50;99.90
3190;DHT22;1606;51.946;10.558;2023-03-23T03:12:39;14.80;99.90
3190;DHT22;1606;51.946;10.558;2023-03-23T03:15:17;15.00;99.90
3190;DHT22;1606;51.946;10.558;2023-03-23T03:17:51;14.80;99.90
3190;DHT22;1606;51.946;10.558;2023-03-23T03:20:21;14.80;99.90
3190;DHT22;1606;51.946;10.558;2023-03-23T03:22:52;15.00;99.90
3190;DHT22;1606;51.946;10.558;2023-03-23T03:25:20;15.10;99.90
3190;DHT22;1606;51.946;10.558;2023-03-23T03:27:49;15.00;99.90
3190;DHT22;1606;51.946;10.558;2023-03-23T03:30:20;14.90;99.90
3190;DHT22;1606;51.946;10.558;2023-03-23T03:32:49;14.70;99.90
3190;DHT22;1606;51.946;10.558;2023-03-23T03:35:19;14.60;99.90
3190;DHT22;1606;51.946;10.558;2023-03-23T03:37:46;14.40;99.90
3190;DHT22;1606;51.946;10.558;2023-03-23T03:40:17;14.50;99.90
3190;DHT22;1606;51.946;10.558;2023-03-23T03:42:45;14.50;99.90
3190;DHT22;1606;51.946;10.558;2023-03-23T03:45:13;14.40;99.90
3190;DHT22;1606;51.946;10.558;2023-03-23T03:47:40;14.40;99.90
3190;DHT22;1606;51.946;10.558;2023-03-23T03:50:08;14.20;99.90
3190;DHT22;1606;51.946;10.558;2023-03-23T03:52:35;14.30;99.90
3190;DHT22;1606;51.946;10.558;2023-03-23T03:55:04;14.30;99.90
3190;DHT22;1606;51.946;10.558;2023-03-23T03:57:33;14.30;99.90
3190;DHT22;1606;51.946;10.558;2023-03-23T04:00:01;14.20;99.90
3190;DHT22;1606;51.946;10.558;2023-03-23T04:02:38;14.20;99.90
3190;DHT22;1606;51.946;10.558;2023-03-23T04:05:06;14.30;99.90
3190;DHT22;1606;51.946;10.558;2023-03-23T04:07:34;14.20;99.90
3190;DHT22;1606;51.946;10.558;2023-03-23T04:10:03;14.10;99.90
3190;DHT22;1606;51.946;10.558;2023-03-23T04:12:32;14.20;99.90
3190;DHT22;1606;51.946;10.558;2023-03-23T04:15:01;14.20;99.90
3190;DHT22;1606;51.946;10.558;2023-03-23T04:17:27;13.90;99.90
3190;DHT22;1606;51.946;10.558;2023-03-23T04:19:55;13.80;99.90
3190;DHT22;1606;51.946;10.558;2023-03-23T04:22:23;13.80;99.90
3190;DHT22;1606;51.946;10.558;2023-03-23T04:24:57;13.90;99.90
3190;DHT22;1606;51.946;10.558;2023-03-23T04:27:25;13.90;99.90
3190;DHT22;1606;51.946;10.558;2023-03-23T04:29:55;13.90;99.90
3190;DHT22;1606;51.946;10.558;2023-03-23T04:32:23;14.00;99.90
3190;DHT22;1606;51.946;10.558;2023-03-23T04:34:50;14.10;99.90
3190;DHT22;1606;51.946;10.558;2023-03-23T04:37:17;14.10;99.90
3190;DHT22;1606;51.946;10.558;2023-03-23T04:39:44;13.90;99.90
3190;DHT22;1606;51.946;10.558;2023-03-23T04:42:11;14.00;99.90
3190;DHT22;1606;51.946;10.558;2023-03-23T04:44:39;14.00;99.90
3190;DHT22;1606;51.946;10.558;2023-03-23T04:47:09;14.00;99.90
3190;DHT22;1606;51.946;10.558;2023-03-23T04:49:35;13.90;99.90
3190;DHT22;1606;51.946;10.558;2023-03-23T04:52:03;13.80;99.90
3190;DHT22;1606;51.946;10.558;2023-03-23T04:54:29;13.70;99.90
3190;DHT22;1606;51.946;10.558;2023-03-23T04:56:56;13.80;99.90
3190;DHT22;1606;51.946;10.558;2023-03-23T04:59:24;13.80;99.90
3190;DHT22;1606;51.946;10.558;2023-03-23T05:01:53;13.90;99.90
3190;DHT22;1606;51.946;10.558;2023-03-23T05:04:22;13.90;99.90
3190;DHT22;1606;51.946;10.558;2023-03-23T05:06:50;13.80;99.90
3190;DHT22;1606;51.946;10.558;2023-03-23T05:09:18;13.80;99.90
3190;DHT22;1606;51.946;10.558;2023-03-23T05:11:45;13.70;99.90
3190;DHT22;1606;51.946;10.558;2023-03-23T05:14:12;13.70;99.90
3190;DHT22;1606;51.946;10.558;2023-03-23T05:16:39;13.60;99.90
3190;DHT22;1606;51.946;10.558;2023-03-23T05:19:07;13.40;99.90
3190;DHT22;1606;51.946;10.558;2023-03-23T05:21:35;13.40;99.90
3190;DHT22;1606;51.946;10.558;2023-03-23T05:24:02;13.50;99.90
3190;DHT22;1606;51.946;10.558;2023-03-23T05:26:29;13.40;99.90
3190;DHT22;1606;51.946;10.558;2023-03-23T05:28:56;13.40;99.90
3190;DHT22;1606;51.946;10.558;2023-03-23T05:31:24;13.50;99.90
3190;DHT22;1606;51.946;10.558;2023-03-23T05:33:52;13.50;99.90
3190;DHT22;1606;51.946;10.558;2023-03-23T05:36:18;13.70;99.90
3190;DHT22;1606;51.946;10.558;2023-03-23T05:38:46;13.60;99.90
3190;DHT22;1606;51.946;10.558;2023-03-23T05:41:15;13.60;99.90
3190;DHT22;1606;51.946;10.558;2023-03-23T05:43:41;13.70;99.90
3190;DHT22;1606;51.946;10.558;2023-03-23T05:46:08;13.60;99.90
3190;DHT22;1606;51.946;10.558;2023-03-23T05:48:35;13.60;99.90
3190;DHT22;1606;51.946;10.558;2023-03-23T05:51:02;13.70;99.90
3190;DHT22;1606;51.946;10.558;2023-03-23T05:53:29;13.70;99.90
3190;DHT22;1606;51.946;10.558;2023-03-23T05:56:00;13.60;99.90
3190;DHT22;1606;51.946;10.558;2023-03-23T05:58:27;13.40;99.90
3190;DHT22;1606;51.946;10.558;2023-03-23T06:00:54;13.20;99.90
3190;DHT22;1606;51.946;10.558;2023-03-23T06:03:20;13.30;99.90
3190;DHT22;1606;51.946;10.558;2023-03-23T06:05:48;13.50;99.90
3190;DHT22;1606;51.946;10.558;2023-03-23T06:08:15;13.50;99.90
3190;DHT22;1606;51.946;10.558;2023-03-23T06:10:43;13.50;99.90
3190;DHT22;1606;51.946;10.558;2023-03-23T06:13:11;13.40;99.90
3190;DHT22;1606;51.946;10.558;2023-03-23T06:15:38;13.50;99.90
3190;DHT22;1606;51.946;10.558;2023-03-23T06:18:05;13.60;99.90
3190;DHT22;1606;51.946;10.558;2023-03-23T06:20:32;13.80;99.90
3190;DHT22;1606;51.946;10.558;2023-03-23T06:23:01;13.70;99.90
3190;DHT22;1606;51.946;10.558;2023-03-23T06:25:29;13.80;99.90
3190;DHT22;1606;51.946;10.558;2023-03-23T06:27:56;13.90;99.90
3190;DHT22;1606;51.946;10.558;2023-03-23T06:30:24;13.70;99.90
3190;DHT22;1606;51.946;10.558;2023-03-23T06:32:52;13.50;99.90
3190;DHT22;1606;51.946;10.558;2023-03-23T06:35:19;13.40;99.90
3190;DHT22;1606;51.946;10.558;2023-03-23T06:37:46;13.50;99.90
3190;DHT22;1606;51.946;10.558;2023-03-23T06:40:13;13.60;99.90
3190;DHT22;1606;51.946;10.558;2023-03-23T06:42:41;13.60;99.90
3190;DHT22;1606;51.946;10.558;2023-03-23T06:45:09;13.50;99.90
3190;DHT22;1606;51.946;10.558;2023-03-23T06:47:37;13.40;99.90
3190;DHT22;1606;51.946;10.558;2023-03-23T06:50:05;13.30;99.90
3190;DHT22;1606;51.946;10.558;2023-03-23T06:52:33;13.30;99.90
3190;DHT22;1606;51.946;10.558;2023-03-23T06:54:59;13.30;99.90
3190;DHT22;1606;51.946;10.558;2023-03-23T06:57:26;13.50;99.90
3190;DHT22;1606;51.946;10.558;2023-03-23T06:59:53;13.70;99.90
3190;DHT22;1606;51.946;10.558;2023-03-23T07:02:20;13.80;99.90
3190;DHT22;1606;51.946;10.558;2023-03-23T07:04:48;13.70;99.90
3190;DHT22;1606;51.946;10.558;2023-03-23T07:07:14;13.60;99.90
3190;DHT22;1606;51.946;10.558;2023-03-23T07:09:44;13.50;99.90
3190;DHT22;1606;51.946;10.558;2023-03-23T07:12:11;13.60;99.90
3190;DHT22;1606;51.946;10.558;2023-03-23T07:14:37;13.50;99.90
3190;DHT22;1606;51.946;10.558;2023-03-23T07:17:04;13.60;99.90
3190;DHT22;1606;51.946;10.558;2023-03-23T07:19:31;13.70;99.90
3190;DHT22;1606;51.946;10.558;2023-03-23T07:21:59;13.60;99.90
3190;DHT22;1606;51.946;10.558;2023-03-23T07:24:26;13.70;99.90
3190;DHT22;1606;51.946;10.558;2023-03-23T07:26:53;13.70;99.90
3190;DHT22;1606;51.946;10.558;2023-03-23T07:29:19;13.80;99.90
3190;DHT22;1606;51.946;10.558;2023-03-23T07:31:46;13.90;99.90
3190;DHT22;1606;51.946;10.558;2023-03-23T07:34:13;14.00;99.90
3190;DHT22;1606;51.946;10.558;2023-03-23T07:36:40;13.80;99.90
3190;DHT22;1606;51.946;10.558;2023-03-23T07:39:08;13.90;99.90
3190;DHT22;1606;51.946;10.558;2023-03-23T07:41:35;14.10;99.90
3190;DHT22;1606;51.946;10.558;2023-03-23T07:44:03;14.20;99.90
3190;DHT22;1606;51.946;10.558;2023-03-23T07:46:30;14.10;99.90
3190;DHT22;1606;51.946;10.558;2023-03-23T07:48:57;14.20;99.90
3190;DHT22;1606;51.946;10.558;2023-03-23T07:51:24;14.10;99.90
3190;DHT22;1606;51.946;10.558;2023-03-23T07:53:51;14.00;99.90
3190;DHT22;1606;51.946;10.558;2023-03-23T07:56:19;14.20;99.90
3190;DHT22;1606;51.946;10.558;2023-03-23T07:58:46;14.10;99.90
3190;DHT22;1606;51.946;10.558;2023-03-23T08:01:14;14.20;99.90
3190;DHT22;1606;51.946;10.558;2023-03-23T08:03:41;14.20;99.90
3190;DHT22;1606;51.946;10.558;2023-03-23T08:06:08;14.20;99.90
3190;DHT22;1606;51.946;10.558;2023-03-23T08:08:36;14.40;99.90
3190;DHT22;1606;51.946;10.558;2023-03-23T08:11:08;14.50;99.90
3190;DHT22;1606;51.946;10.558;2023-03-23T08:13:36;14.40;99.90
3190;DHT22;1606;51.946;10.558;2023-03-23T08:16:04;14.50;99.90
3190;DHT22;1606;51.946;10.558;2023-03-23T08:18:31;14.60;99.90
3190;DHT22;1606;51.946;10.558;2023-03-23T08:21:00;14.50;99.90
3190;DHT22;1606;51.946;10.558;2023-03-23T08:23:27;14.40;99.90
3190;DHT22;1606;51.946;10.558;2023-03-23T08:25:53;14.60;99.90
3190;DHT22;1606;51.946;10.558;2023-03-23T08:28:21;14.80;99.90
3190;DHT22;1606;51.946;10.558;2023-03-23T08:30:50;14.80;99.90
3190;DHT22;1606;51.946;10.558;2023-03-23T08:33:18;14.70;99.90
3190;DHT22;1606;51.946;10.558;2023-03-23T08:35:54;14.90;99.90
3190;DHT22;1606;51.946;10.558;2023-03-23T08:38:22;15.10;99.90
3190;DHT22;1606;51.946;10.558;2023-03-23T08:40:49;15.10;99.90
3190;DHT22;1606;51.946;10.558;2023-03-23T08:43:16;14.80;99.90
3190;DHT22;1606;51.946;10.558;2023-03-23T08:45:42;14.80;99.90
3190;DHT22;1606;51.946;10.558;2023-03-23T08:48:11;15.10;99.90
3190;DHT22;1606;51.946;10.558;2023-03-23T08:50:37;15.20;99.90
3190;DHT22;1606;51.946;10.558;2023-03-23T08:53:04;15.00;99.90
3190;DHT22;1606;51.946;10.558;2023-03-23T08:55:31;15.10;99.90
3190;DHT22;1606;51.946;10.558;2023-03-23T08:57:58;15.10;99.90
3190;DHT22;1606;51.946;10.558;2023-03-23T09:00:25;15.40;99.90
3190;DHT22;1606;51.946;10.558;2023-03-23T09:02:53;15.30;99.90
3190;DHT22;1606;51.946;10.558;2023-03-23T09:05:26;15.40;99.90
3190;DHT22;1606;51.946;10.558;2023-03-23T09:07:55;15.50;99.90
3190;DHT22;1606;51.946;10.558;2023-03-23T09:10:25;15.40;99.90
3190;DHT22;1606;51.946;10.558;2023-03-23T09:12:53;15.50;99.90
3190;DHT22;1606;51.946;10.558;2023-03-23T09:15:21;15.40;99.90
3190;DHT22;1606;51.946;10.558;2023-03-23T09:17:50;15.50;99.90
3190;DHT22;1606;51.946;10.558;2023-03-23T09:20:19;15.80;99.90
3190;DHT22;1606;51.946;10.558;2023-03-23T09:22:49;15.80;99.90
3190;DHT22;1606;51.946;10.558;2023-03-23T09:25:18;15.80;99.90
3190;DHT22;1606;51.946;10.558;2023-03-23T09:27:48;16.10;99.90
3190;DHT22;1606;51.946;10.558;2023-03-23T09:30:18;16.20;99.90
3190;DHT22;1606;51.946;10.558;2023-03-23T09:32:46;16.40;99.90
3190;DHT22;1606;51.946;10.558;2023-03-23T09:35:14;16.40;99.90
3190;DHT22;1606;51.946;10.558;2023-03-23T09:37:42;16.30;99.90
3190;DHT22;1606;51.946;10.558;2023-03-23T09:40:14;16.20;99.90
3190;DHT22;1606;51.946;10.558;2023-03-23T09:43:13;16.10;99.90
3190;DHT22;1606;51.946;10.558;2023-03-23T09:45:50;16.00;99.90
3190;DHT22;1606;51.946;10.558;2023-03-23T09:48:27;15.80;99.90
3190;DHT22;1606;51.946;10.558;2023-03-23T09:50:59;15.80;99.90
3190;DHT22;1606;51.946;10.558;2023-03-23T09:53:38;16.00;99.90
3190;DHT22;1606;51.946;10.558;2023-03-23T09:56:12;15.90;99.90
3190;DHT22;1606;51.946;10.558;2023-03-23T09:58:46;15.90;99.90
3190;DHT22;1606;51.946;10.558;2023-03-23T10:01:19;15.70;99.90
3190;DHT22;1606;51.946;10.558;2023-03-23T10:03:46;15.70;99.90
3190;DHT22;1606;51.946;10.558;2023-03-23T10:06:15;15.80;99.90
3190;DHT22;1606;51.946;10.558;2023-03-23T10:08:46;15.80;99.90
3190;DHT22;1606;51.946;10.558;2023-03-23T10:11:22;15.70;99.90
3190;DHT22;1606;51.946;10.558;2023-03-23T10:14:06;15.70;99.90
3190;DHT22;1606;51.946;10.558;2023-03-23T10:16:37;15.80;99.90
3190;DHT22;1606;51.946;10.558;2023-03-23T10:19:11;16.10;99.90
3190;DHT22;1606;51.946;10.558;2023-03-23T10:21:41;15.90;99.90
3190;DHT22;1606;51.946;10.558;2023-03-23T10:24:12;15.80;99.90
3190;DHT22;1606;51.946;10.558;2023-03-23T10:26:48;15.80;99.90
3190;DHT22;1606;51.946;10.558;2023-03-23T10:29:19;15.70;99.90
3190;DHT22;1606;51.946;10.558;2023-03-23T10:31:49;16.00;99.90
3190;DHT22;1606;51.946;10.558;2023-03-23T10:34:30;16.30;99.90
3190;DHT22;1606;51.946;10.558;2023-03-23T10:37:02;16.40;99.90
3190;DHT22;1606;51.946;10.558;2023-03-23T10:39:38;16.40;99.90
3190;DHT22;1606;51.946;10.558;2023-03-23T10:42:09;16.40;99.90
3190;DHT22;1606;51.946;10.558;2023-03-23T10:44:36;16.30;99.90
3190;DHT22;1606;51.946;10.558;2023-03-23T10:47:05;16.20;99.90
3190;DHT22;1606;51.946;10.558;2023-03-23T10:49:36;16.30;99.90
3190;DHT22;1606;51.946;10.558;2023-03-23T10:52:24;16.30;99.90
3190;DHT22;1606;51.946;10.558;2023-03-23T10:54:55;16.40;99.90
3190;DHT22;1606;51.946;10.558;2023-03-23T10:57:25;16.50;99.90
3190;DHT22;1606;51.946;10.558;2023-03-23T10:59:59;16.60;99.90
3190;DHT22;1606;51.946;10.558;2023-03-23T11:02:27;16.60;99.90
3190;DHT22;1606;51.946;10.558;2023-03-23T11:04:58;16.60;99.90
3190;DHT22;1606;51.946;10.558;2023-03-23T11:07:28;16.50;99.90
3190;DHT22;1606;51.946;10.558;2023-03-23T11:09:57;16.40;99.90
3190;DHT22;1606;51.946;10.558;2023-03-23T11:12:33;16.50;99.90
3190;DHT22;1606;51.946;10.558;2023-03-23T11:15:09;16.80;99.90
3190;DHT22;1606;51.946;10.558;2023-03-23T11:17:42;16.80;99.90
3190;DHT22;1606;51.946;10.558;2023-03-23T11:20:13;16.80;99.90
3190;DHT22;1606;51.946;10.558;2023-03-23T11:22:42;16.80;99.90
3190;DHT22;1606;51.946;10.558;2023-03-23T11:25:12;17.00;99.90
3190;DHT22;1606;51.946;10.558;2023-03-23T11:27:42;16.70;99.90
3190;DHT22;1606;51.946;10.558;2023-03-23T11:30:11;16.50;99.90
3190;DHT22;1606;51.946;10.558;2023-03-23T11:32:45;16.10;99.90
3190;DHT22;1606;51.946;10.558;2023-03-23T11:35:16;16.00;99.90
3190;DHT22;1606;51.946;10.558;2023-03-23T11:37:46;16.10;99.90
3190;DHT22;1606;51.946;10.558;2023-03-23T11:40:16;16.30;99.90
3190;DHT22;1606;51.946;10.558;2023-03-23T11:42:47;16.40;99.90
3190;DHT22;1606;51.946;10.558;2023-03-23T11:45:18;16.80;99.90
3190;DHT22;1606;51.946;10.558;2023-03-23T11:47:55;16.90;99.90
3190;DHT22;1606;51.946;10.558;2023-03-23T11:50:25;17.10;99.90
3190;DHT22;1606;51.946;10.558;2023-03-23T11:53:00;17.20;99.90
3190;DHT22;1606;51.946;10.558;2023-03-23T11:55:33;17.30;99.90
3190;DHT22;1606;51.946;10.558;2023-03-23T11:58:12;17.60;99.90
3190;DHT22;1606;51.946;10.558;2023-03-23T12:00:44;17.80;99.90
3190;DHT22;1606;51.946;10.558;2023-03-23T12:03:14;17.90;99.90
3190;DHT22;1606;51.946;10.558;2023-03-23T12:05:47;17.70;99.80
3190;DHT22;1606;51.946;10.558;2023-03-23T12:08:29;17.70;99.90
3190;DHT22;1606;51.946;10.558;2023-03-23T12:11:05;17.50;99.20
3190;DHT22;1606;51.946;10.558;2023-03-23T12:13:55;17.00;98.90
3190;DHT22;1606;51.946;10.558;2023-03-23T12:16:33;16.70;98.90
3190;DHT22;1606;51.946;10.558;2023-03-23T12:19:10;16.90;99.90
3190;DHT22;1606;51.946;10.558;2023-03-23T12:21:47;17.10;99.90
3190;DHT22;1606;51.946;10.558;2023-03-23T12:24:25;17.40;99.30
3190;DHT22;1606;51.946;10.558;2023-03-23T12:27:01;17.50;99.60
3190;DHT22;1606;51.946;10.558;2023-03-23T12:29:43;17.90;99.50
3190;DHT22;1606;51.946;10.558;2023-03-23T12:32:29;17.80;99.60
3190;DHT22;1606;51.946;10.558;2023-03-23T12:35:05;17.80;99.30
3190;DHT22;1606;51.946;10.558;2023-03-23T12:37:45;17.80;98.30
3190;DHT22;1606;51.946;10.558;2023-03-23T12:40:41;17.80;98.50
3190;DHT22;1606;51.946;10.558;2023-03-23T12:43:15;17.90;97.40
3190;DHT22;1606;51.946;10.558;2023-03-23T12:45:59;17.70;97.80
3190;DHT22;1606;51.946;10.558;2023-03-23T12:48:31;17.60;97.80
3190;DHT22;1606;51.946;10.558;2023-03-23T12:51:07;17.80;98.10
3190;DHT22;1606;51.946;10.558;2023-03-23T12:53:41;17.80;98.10
3190;DHT22;1606;51.946;10.558;2023-03-23T12:56:13;17.80;97.90
3190;DHT22;1606;51.946;10.558;2023-03-23T12:58:44;17.70;97.70
3190;DHT22;1606;51.946;10.558;2023-03-23T13:01:17;17.90;97.80
3190;DHT22;1606;51.946;10.558;2023-03-23T13:03:51;17.60;97.40
3190;DHT22;1606;51.946;10.558;2023-03-23T13:06:23;17.70;98.20
3190;DHT22;1606;51.946;10.558;2023-03-23T13:08:55;17.80;97.30
3190;DHT22;1606;51.946;10.558;2023-03-23T13:11:28;17.90;98.70
3190;DHT22;1606;51.946;10.558;2023-03-23T13:14:06;17.90;97.60
3190;DHT22;1606;51.946;10.558;2023-03-23T13:16:42;18.00;97.40
3190;DHT22;1606;51.946;10.558;2023-03-23T13:19:20;18.00;97.90
3190;DHT22;1606;51.946;10.558;2023-03-23T13:21:55;18.30;96.70
3190;DHT22;1606;51.946;10.558;2023-03-23T13:24:27;18.40;96.70
3190;DHT22;1606;51.946;10.558;2023-03-23T13:26:55;18.50;97.60
3190;DHT22;1606;51.946;10.558;2023-03-23T13:29:24;18.60;96.20
3190;DHT22;1606;51.946;10.558;2023-03-23T13:32:05;18.40;95.80
3190;DHT22;1606;51.946;10.558;2023-03-23T13:34:32;18.00;96.70
3190;DHT22;1606;51.946;10.558;2023-03-23T13:37:01;18.00;96.70
3190;DHT22;1606;51.946;10.558;2023-03-23T13:39:32;17.90;96.80
3190;DHT22;1606;51.946;10.558;2023-03-23T13:42:03;17.70;96.50
3190;DHT22;1606;51.946;10.558;2023-03-23T13:44:42;17.70;97.00
3190;DHT22;1606;51.946;10.558;2023-03-23T13:47:25;17.80;97.70
3190;DHT22;1606;51.946;10.558;2023-03-23T13:49:57;18.30;97.60
3190;DHT22;1606;51.946;10.558;2023-03-23T13:52:35;18.50;97.30
3190;DHT22;1606;51.946;10.558;2023-03-23T13:55:30;18.80;96.80
3190;DHT22;1606;51.946;10.558;2023-03-23T13:58:11;18.70;95.20
3190;DHT22;1606;51.946;10.558;2023-03-23T14:00:46;18.70;95.80
3190;DHT22;1606;51.946;10.558;2023-03-23T14:03:24;18.60;95.80
3190;DHT22;1606;51.946;10.558;2023-03-23T14:06:02;18.60;95.40
3190;DHT22;1606;51.946;10.558;2023-03-23T14:08:38;18.80;96.10
3190;DHT22;1606;51.946;10.558;2023-03-23T14:11:15;19.00;95.50
3190;DHT22;1606;51.946;10.558;2023-03-23T14:13:46;19.10;95.10
3190;DHT22;1606;51.946;10.558;2023-03-23T14:16:17;19.10;95.60
3190;DHT22;1606;51.946;10.558;2023-03-23T14:18:52;19.20;95.80
3190;DHT22;1606;51.946;10.558;2023-03-23T14:21:31;19.00;96.00
3190;DHT22;1606;51.946;10.558;2023-03-23T14:24:05;18.90;96.00
3190;DHT22;1606;51.946;10.558;2023-03-23T14:26:34;18.70;96.40
3190;DHT22;1606;51.946;10.558;2023-03-23T14:29:03;18.50;97.10
3190;DHT22;1606;51.946;10.558;2023-03-23T14:31:31;18.20;97.00
3190;DHT22;1606;51.946;10.558;2023-03-23T14:34:03;18.00;97.40
3190;DHT22;1606;51.946;10.558;2023-03-23T14:36:33;17.60;98.20
3190;DHT22;1606;51.946;10.558;2023-03-23T14:39:04;17.60;99.00
3190;DHT22;1606;51.946;10.558;2023-03-23T14:41:34;17.40;99.20
3190;DHT22;1606;51.946;10.558;2023-03-23T14:44:03;17.60;99.70
3190;DHT22;1606;51.946;10.558;2023-03-23T14:46:31;17.90;99.30
3190;DHT22;1606;51.946;10.558;2023-03-23T14:49:02;17.60;99.20
3190;DHT22;1606;51.946;10.558;2023-03-23T14:51:30;17.50;99.20
3190;DHT22;1606;51.946;10.558;2023-03-23T14:53:59;17.40;99.60
3190;DHT22;1606;51.946;10.558;2023-03-23T14:56:33;17.30;99.70
3190;DHT22;1606;51.946;10.558;2023-03-23T14:59:03;17.20;99.90
3190;DHT22;1606;51.946;10.558;2023-03-23T15:01:32;17.40;99.90
3190;DHT22;1606;51.946;10.558;2023-03-23T15:04:02;17.40;99.90
3190;DHT22;1606;51.946;10.558;2023-03-23T15:06:32;17.20;99.90
3190;DHT22;1606;51.946;10.558;2023-03-23T15:09:02;17.20;99.90
3190;DHT22;1606;51.946;10.558;2023-03-23T15:11:32;17.10;99.90
3190;DHT22;1606;51.946;10.558;2023-03-23T15:14:02;16.90;99.90
3190;DHT22;1606;51.946;10.558;2023-03-23T15:16:34;16.70;99.90
3190;DHT22;1606;51.946;10.558;2023-03-23T15:19:04;17.00;99.90
3190;DHT22;1606;51.946;10.558;2023-03-23T15:21:33;16.80;99.90
3190;DHT22;1606;51.946;10.558;2023-03-23T15:24:02;16.70;99.90
3190;DHT22;1606;51.946;10.558;2023-03-23T15:26:32;16.30;99.90
3190;DHT22;1606;51.946;10.558;2023-03-23T15:29:03;16.10;99.90
3190;DHT22;1606;51.946;10.558;2023-03-23T15:31:30;16.10;99.90
3190;DHT22;1606;51.946;10.558;2023-03-23T15:34:01;16.00;99.90
3190;DHT22;1606;51.946;10.558;2023-03-23T15:36:34;15.90;99.90
3190;DHT22;1606;51.946;10.558;2023-03-23T15:39:01;15.90;99.90
3190;DHT22;1606;51.946;10.558;2023-03-23T15:41:30;15.80;99.90
3190;DHT22;1606;51.946;10.558;2023-03-23T15:44:09;15.60;99.90
3190;DHT22;1606;51.946;10.558;2023-03-23T15:46:47;15.50;99.90
3190;DHT22;1606;51.946;10.558;2023-03-23T15:49:15;15.80;99.90
3190;DHT22;1606;51.946;10.558;2023-03-23T15:51:44;15.80;99.90
3190;DHT22;1606;51.946;10.558;2023-03-23T15:54:15;15.60;99.90
3190;DHT22;1606;51.946;10.558;2023-03-23T15:56:43;15.50;99.90
3190;DHT22;1606;51.946;10.558;2023-03-23T15:59:11;15.40;99.90
3190;DHT22;1606;51.946;10.558;2023-03-23T16:01:41;15.20;99.90
3190;DHT22;1606;51.946;10.558;2023-03-23T16:04:11;15.10;99.90
3190;DHT22;1606;51.946;10.558;2023-03-23T16:06:47;15.10;99.90
3190;DHT22;1606;51.946;10.558;2023-03-23T16:09:16;15.10;99.90
3190;DHT22;1606;51.946;10.558;2023-03-23T16:11:45;15.00;99.90